Time;durP1;ratioP1;P1;durP2;ratioP2;P2;SDS_P1;SDS_P2;PMS_P1;PMS_P2;Temp;Humidity;BMP_temperature;BMP_pressure;BME280_temperature;BME280_humidity;BME280_pressure;Samples;Min_cycle;Max_cycle;Signal;HPM_P1;HPM_P2
2022/07/15 04:26:36;;;;;;;1.37;0.78;;;;;;;20.55;100.00;99125.18;1760105;79;564981;-55
2022/07/15 04:29:03;;;;;;;1.35;0.80;;;;;;;20.27;100.00;99115.56;1740516;80;21272;-53
2022/07/15 04:31:30;;;;;;;1.52;0.80;;;;;;;20.10;100.00;99131.88;1735316;81;21157;-53
2022/07/15 04:33:59;;;;;;;2.15;0.70;;;;;;;19.96;100.00;99136.83;1735189;80;21035;-54
2022/07/15 04:36:25;;;;;;;0.80;0.80;;;;;;;19.83;100.00;99133.54;1737348;81;21096;-52
2022/07/15 04:38:52;;;;;;;1.00;0.70;;;;;;;19.72;100.00;99142.42;1733727;81;22149;-52
2022/07/15 04:41:21;;;;;;;0.70;0.70;;;;;;;19.61;100.00;99152.48;1734825;80;21547;-52
2022/07/15 04:43:47;;;;;;;2.05;0.68;;;;;;;19.52;100.00;99151.99;1735712;80;21449;-53
2022/07/15 04:46:15;;;;;;;1.57;0.80;;;;;;;19.44;100.00;99160.02;1736352;80;20942;-54
2022/07/15 04:51:29;;;;;;;0.80;0.70;;;;;;;19.34;100.00;99143.27;1741732;80;21523;-54
2022/07/15 04:53:55;;;;;;;2.35;1.00;;;;;;;19.32;100.00;99141.19;1738743;80;20987;-54
2022/07/15 04:56:22;;;;;;;1.30;0.80;;;;;;;19.31;100.00;99138.13;1732925;80;21194;-55
2022/07/15 04:58:51;;;;;;;2.80;0.93;;;;;;;19.31;100.00;99133.50;1718266;80;21706;-55
2022/07/15 05:01:18;;;;;;;0.93;0.82;;;;;;;19.29;100.00;99132.80;1720890;80;21380;-53
2022/07/15 05:03:44;;;;;;;0.90;0.80;;;;;;;19.28;100.00;99125.13;1666604;84;21076;-55
2022/07/15 05:06:11;;;;;;;0.95;0.80;;;;;;;19.28;100.00;99137.40;1667165;83;21623;-52
2022/07/15 05:08:38;;;;;;;0.70;0.70;;;;;;;19.28;100.00;99125.63;1667691;83;21146;-52
2022/07/15 05:11:05;;;;;;;1.12;0.72;;;;;;;19.27;100.00;99117.07;1673404;83;21133;-52
2022/07/15 05:13:32;;;;;;;2.42;0.90;;;;;;;19.27;100.00;99110.25;1651270;83;21105;-53
2022/07/15 05:16:01;;;;;;;1.70;0.80;;;;;;;19.26;100.00;99109.39;1666316;83;22372;-54
2022/07/15 05:18:29;;;;;;;1.65;1.00;;;;;;;19.27;100.00;99100.20;1666554;83;21062;-53
2022/07/15 05:20:57;;;;;;;3.22;0.90;;;;;;;19.28;100.00;99092.88;1675002;83;21068;-53
2022/07/15 05:23:25;;;;;;;2.72;0.90;;;;;;;19.30;100.00;99079.09;1669788;83;21583;-54
2022/07/15 05:25:54;;;;;;;1.17;0.80;;;;;;;19.30;100.00;99075.87;1670792;83;21061;-52
2022/07/15 05:28:22;;;;;;;1.10;0.90;;;;;;;19.30;100.00;99075.87;1670004;84;20948;-52
2022/07/15 05:30:49;;;;;;;2.37;1.17;;;;;;;19.31;100.00;99069.38;1663469;84;20947;-51
2022/07/15 05:33:16;;;;;;;3.67;1.40;;;;;;;19.34;100.00;99073.19;1667503;84;21437;-52
2022/07/15 05:35:43;;;;;;;2.77;1.00;;;;;;;19.36;100.00;99071.19;1686968;82;20890;-55
2022/07/15 05:38:12;;;;;;;2.75;1.10;;;;;;;19.39;100.00;99057.76;1672701;83;20994;-54
2022/07/15 05:40:38;;;;;;;4.22;1.00;;;;;;;19.42;100.00;99059.67;1655498;85;20960;-54
2022/07/15 05:43:06;;;;;;;2.35;0.80;;;;;;;19.47;100.00;99057.88;1651369;85;21502;-52
2022/07/15 05:45:34;;;;;;;2.98;0.90;;;;;;;19.50;100.00;99051.64;1651986;85;21193;-52
2022/07/15 05:48:03;;;;;;;1.10;0.72;;;;;;;19.56;100.00;99051.58;1651631;85;20925;-52
2022/07/15 05:50:32;;;;;;;3.27;0.72;;;;;;;19.63;100.00;99048.11;1651632;85;21518;-53
2022/07/15 05:53:00;;;;;;;0.80;0.80;;;;;;;19.72;100.00;99044.12;1653128;85;21003;-52
2022/07/15 05:55:26;;;;;;;1.02;0.80;;;;;;;19.82;100.00;99038.13;1652446;85;21496;-51
2022/07/15 05:57:52;;;;;;;0.85;0.85;;;;;;;19.92;100.00;99036.20;1656990;85;22394;-53
2022/07/15 06:00:21;;;;;;;0.70;0.70;;;;;;;20.02;100.00;99043.34;1650625;85;21003;-52
2022/07/15 06:02:49;;;;;;;0.70;0.60;;;;;;;20.13;100.00;99039.56;1651847;85;20951;-52
2022/07/15 06:05:18;;;;;;;2.87;0.70;;;;;;;20.25;100.00;99031.50;1653512;85;20974;-51
2022/07/15 06:07:46;;;;;;;0.60;0.60;;;;;;;20.38;100.00;99032.55;1650269;85;21469;-53
2022/07/15 06:10:13;;;;;;;2.45;0.60;;;;;;;20.52;100.00;99025.19;1651740;85;21170;-53
2022/07/15 06:12:40;;;;;;;1.55;0.70;;;;;;;20.68;100.00;99017.15;1649234;84;21110;-54
2022/07/15 06:15:08;;;;;;;1.05;0.82;;;;;;;20.85;100.00;99011.33;1652717;85;21664;-51
2022/07/15 06:17:36;;;;;;;3.17;0.68;;;;;;;21.03;100.00;99014.91;1648667;85;21067;-54
2022/07/15 06:20:06;;;;;;;0.75;0.60;;;;;;;21.18;100.00;99008.39;1654337;85;21134;-53
2022/07/15 06:22:33;;;;;;;0.80;0.70;;;;;;;21.34;100.00;99006.31;1651618;85;22373;-52
2022/07/15 06:25:00;;;;;;;3.10;0.70;;;;;;;21.45;100.00;99012.37;1646161;85;21109;-53
2022/07/15 06:27:29;;;;;;;0.72;0.60;;;;;;;21.59;100.00;99015.55;1639679;86;21099;-54
2022/07/15 06:29:57;;;;;;;0.98;0.55;;;;;;;21.70;100.00;99017.48;1616418;86;21123;-52
2022/07/15 06:32:23;;;;;;;2.25;0.75;;;;;;;21.85;100.00;99018.63;1641327;86;21111;-54
2022/07/15 06:34:50;;;;;;;0.65;0.65;;;;;;;22.02;100.00;99016.00;1645723;86;22219;-52
2022/07/15 06:37:17;;;;;;;2.15;0.60;;;;;;;22.19;100.00;99010.42;1637926;86;21471;-54
2022/07/15 06:39:43;;;;;;;0.72;0.60;;;;;;;22.36;100.00;99011.84;1640777;84;21138;-52
2022/07/15 06:42:10;;;;;;;2.00;0.60;;;;;;;22.53;100.00;99006.25;1644818;85;21557;-51
2022/07/15 06:44:38;;;;;;;1.55;0.65;;;;;;;22.70;100.00;98999.42;1632762;85;21126;-50
2022/07/15 06:47:07;;;;;;;0.65;0.53;;;;;;;22.84;100.00;98996.03;1644755;86;21200;-54
2022/07/15 06:49:36;;;;;;;0.70;0.53;;;;;;;22.92;100.00;98985.06;1641823;86;22511;-52
2022/07/15 06:52:04;;;;;;;1.10;0.80;;;;;;;22.97;100.00;98989.00;1639156;86;21114;-53
2022/07/15 06:54:31;;;;;;;0.72;0.60;;;;;;;22.98;100.00;98989.85;1643339;86;21090;-51
2022/07/15 06:56:59;;;;;;;0.60;0.60;;;;;;;22.98;100.00;98985.23;1642128;86;22015;-53
2022/07/15 06:59:25;;;;;;;0.60;0.55;;;;;;;23.01;100.00;98984.03;1640883;86;21266;-55
2022/07/15 07:01:52;;;;;;;1.00;0.60;;;;;;;23.04;100.00;98990.56;1645082;86;21793;-53
2022/07/15 07:04:21;;;;;;;1.85;0.50;;;;;;;23.07;100.00;98983.34;1642501;86;21116;-54
2022/07/15 07:06:49;;;;;;;2.08;0.60;;;;;;;23.12;100.00;98982.33;1639882;86;21090;-52
2022/07/15 07:09:15;;;;;;;0.60;0.55;;;;;;;23.19;100.00;98985.23;1640018;86;21083;-53
2022/07/15 07:11:41;;;;;;;0.60;0.60;;;;;;;23.24;100.00;98982.30;1641093;86;22369;-54
2022/07/15 07:14:09;;;;;;;1.40;0.88;;;;;;;23.29;100.00;98981.28;1643502;86;21416;-53
2022/07/15 07:16:37;;;;;;;3.67;0.50;;;;;;;23.35;100.00;98969.60;1641128;86;21126;-53
2022/07/15 07:19:04;;;;;;;4.10;0.65;;;;;;;23.39;100.00;98964.63;1641821;86;21407;-52
2022/07/15 07:21:31;;;;;;;0.75;0.60;;;;;;;23.40;100.00;98972.67;1640798;86;21139;-54
2022/07/15 07:23:58;;;;;;;2.12;0.90;;;;;;;23.40;100.00;98980.05;1645554;86;21148;-52
2022/07/15 07:26:25;;;;;;;0.57;0.57;;;;;;;23.40;100.00;98981.42;1640387;86;21012;-52
2022/07/15 07:28:52;;;;;;;0.90;0.50;;;;;;;23.41;100.00;98991.38;1643008;86;21127;-51
2022/07/15 07:31:25;;;;;;;3.10;0.60;;;;;;;23.45;100.00;98993.28;1639636;86;21166;-53
2022/07/15 07:33:48;;;;;;;0.53;0.50;;;;;;;23.51;100.00;98993.98;1707963;81;21098;-53
2022/07/15 07:36:15;;;;;;;0.60;0.45;;;;;;;23.60;100.00;99002.55;1654349;84;21262;-54
2022/07/15 07:38:41;;;;;;;0.50;0.50;;;;;;;23.69;100.00;99005.63;1649796;84;21078;-55
2022/07/15 07:41:08;;;;;;;3.90;0.68;;;;;;;23.77;100.00;99005.59;1652944;84;21086;-55
2022/07/15 07:43:37;;;;;;;4.62;0.40;;;;;;;23.86;100.00;99000.42;1655487;84;21649;-54
2022/07/15 07:46:04;;;;;;;0.60;0.60;;;;;;;24.00;100.00;99001.56;1650710;84;21123;-55
2022/07/15 07:48:32;;;;;;;0.80;0.50;;;;;;;24.14;100.00;99003.59;1650912;84;21159;-54
2022/07/15 07:50:59;;;;;;;1.57;0.50;;;;;;;24.29;100.00;98997.70;1649229;84;21114;-55
2022/07/15 07:53:26;;;;;;;1.15;0.68;;;;;;;24.41;100.00;99005.05;1654910;84;21114;-55
2022/07/15 07:55:52;;;;;;;1.75;0.50;;;;;;;24.50;100.00;99008.92;1655142;84;21505;-54
2022/07/15 07:58:20;;;;;;;0.82;0.60;;;;;;;24.58;100.00;99013.55;1652601;84;21086;-54
2022/07/15 08:00:46;;;;;;;1.20;0.60;;;;;;;24.66;100.00;99013.50;1652718;84;21586;-54
2022/07/15 08:03:15;;;;;;;1.30;0.50;;;;;;;24.75;100.00;99008.25;1649760;84;21157;-54
2022/07/15 08:05:41;;;;;;;1.30;0.60;;;;;;;24.82;100.00;99013.40;1651352;84;21623;-55
2022/07/15 08:08:15;;;;;;;1.95;0.60;;;;;;;24.91;100.00;99014.23;1655901;84;21098;-56
2022/07/15 08:10:48;;;;;;;1.60;0.65;;;;;;;25.01;100.00;99025.83;1653945;84;21114;-55
2022/07/15 08:13:15;;;;;;;1.98;0.50;;;;;;;25.10;100.00;99026.63;1653870;84;21170;-55
2022/07/15 08:15:43;;;;;;;1.95;0.50;;;;;;;25.16;100.00;99030.91;1655941;84;21126;-55
2022/07/15 08:18:10;;;;;;;2.65;0.57;;;;;;;25.19;100.00;99042.91;1657201;84;21100;-54
2022/07/15 08:20:37;;;;;;;0.70;0.40;;;;;;;25.20;100.00;99032.75;1655756;84;21385;-54
2022/07/15 08:23:05;;;;;;;2.45;0.60;;;;;;;25.17;100.00;99035.89;1656135;84;20912;-54
2022/07/15 08:25:34;;;;;;;1.72;0.70;;;;;;;25.15;100.00;99042.95;1654915;84;21166;-55
2022/07/15 08:28:02;;;;;;;0.50;0.50;;;;;;;25.13;100.00;99042.80;1635116;85;20971;-55
2022/07/15 08:30:29;;;;;;;0.70;0.60;;;;;;;25.07;100.00;99056.78;1632579;85;21429;-56
2022/07/15 08:32:57;;;;;;;1.52;0.70;;;;;;;25.01;100.00;99064.37;1632528;85;20958;-55
2022/07/15 08:35:24;;;;;;;1.98;0.80;;;;;;;24.89;100.00;99070.80;1633992;85;20997;-55
2022/07/15 08:37:51;;;;;;;0.80;0.80;;;;;;;24.73;100.00;99076.41;1635894;85;21390;-55
2022/07/15 08:40:17;;;;;;;2.67;0.70;;;;;;;24.58;100.00;99078.73;1631742;85;21818;-58
2022/07/15 08:42:45;;;;;;;0.80;0.80;;;;;;;24.41;100.00;99083.45;1632231;85;20978;-54
2022/07/15 08:45:13;;;;;;;2.65;0.70;;;;;;;24.24;100.00;99084.54;1681302;82;22018;-55
2022/07/15 08:47:42;;;;;;;0.80;0.80;;;;;;;24.04;100.00;99082.15;1684105;82;20907;-54
2022/07/15 08:50:11;;;;;;;0.70;0.70;;;;;;;23.92;100.00;99093.67;1679759;82;22574;-55
2022/07/15 08:52:38;;;;;;;0.90;0.70;;;;;;;23.81;100.00;99096.80;1685908;82;20922;-55
2022/07/15 08:55:06;;;;;;;0.95;0.80;;;;;;;23.69;100.00;99094.91;1683988;82;20943;-56
2022/07/15 08:57:33;;;;;;;3.80;0.98;;;;;;;23.62;100.00;99103.51;1683450;82;20882;-56
2022/07/15 09:00:00;;;;;;;0.78;0.78;;;;;;;23.54;100.00;99103.00;1685674;82;20902;-56
2022/07/15 09:02:26;;;;;;;1.72;0.80;;;;;;;23.49;100.00;99097.14;1685025;82;21323;-56
2022/07/15 09:05:33;;;;;;;0.90;0.72;;;;;;;23.47;100.00;99095.59;1688270;82;20911;-56
2022/07/15 09:08:16;;;;;;;1.35;0.80;;;;;;;23.46;100.00;99094.73;1692922;82;21057;-56
2022/07/15 09:10:55;;;;;;;1.70;0.70;;;;;;;23.43;100.00;99101.92;1695515;82;20934;-56
2022/07/15 09:13:40;;;;;;;2.05;0.70;;;;;;;23.41;100.00;99099.86;1690356;82;21021;-57
2022/07/15 09:16:20;;;;;;;2.47;0.70;;;;;;;23.41;100.00;99092.99;1611020;86;21059;-56
2022/07/15 09:18:44;;;;;;;1.00;0.70;;;;;;;23.44;100.00;99099.53;1688992;82;20930;-55
2022/07/15 09:21:28;;;;;;;1.02;0.88;;;;;;;23.49;100.00;99092.16;1684119;82;22215;-56
2022/07/15 09:23:54;;;;;;;2.60;0.60;;;;;;;23.53;100.00;99110.03;1691660;82;21065;-58
2022/07/15 09:26:28;;;;;;;0.70;0.70;;;;;;;23.58;100.00;99114.48;1694765;81;21561;-57
2022/07/15 09:28:55;;;;;;;1.15;0.90;;;;;;;23.60;100.00;99110.55;1712786;81;21284;-57
2022/07/15 09:34:24;;;;;;;1.25;0.75;;;;;;;23.63;100.00;99112.95;1706342;81;21070;-57
2022/07/15 09:36:55;;;;;;;0.90;0.80;;;;;;;23.61;100.00;99110.03;1706759;81;21329;-55
2022/07/15 09:39:23;;;;;;;0.93;0.78;;;;;;;23.61;100.00;99110.03;1703407;81;21025;-56
2022/07/15 09:41:52;;;;;;;1.22;0.80;;;;;;;23.60;100.00;99106.94;1708533;81;21632;-56
2022/07/15 09:44:27;;;;;;;4.78;0.80;;;;;;;23.59;100.00;99106.59;1706396;81;21050;-57
2022/07/15 09:46:59;;;;;;;0.75;0.62;;;;;;;23.58;100.00;99118.61;1708108;81;21117;-58
2022/07/15 09:49:32;;;;;;;1.17;0.80;;;;;;;23.57;100.00;99123.75;1713390;81;21127;-57
2022/07/15 09:52:07;;;;;;;2.05;0.70;;;;;;;23.56;100.00;99116.02;1706695;81;21481;-56
2022/07/15 09:54:47;;;;;;;1.05;0.70;;;;;;;23.57;100.00;99124.61;1710802;81;22066;-58
2022/07/15 09:57:18;;;;;;;1.27;0.70;;;;;;;23.58;100.00;99129.59;1707392;81;21113;-57
2022/07/15 09:59:47;;;;;;;0.62;0.60;;;;;;;23.59;100.00;99127.19;1703000;83;21090;-58
2022/07/15 10:02:14;;;;;;;1.02;0.70;;;;;;;23.57;100.00;99121.00;1712996;81;21504;-56
2022/07/15 10:04:43;;;;;;;1.12;0.72;;;;;;;23.54;100.00;99129.61;1705431;81;21062;-57
2022/07/15 10:07:09;;;;;;;0.60;0.60;;;;;;;23.48;100.00;99133.84;1703816;81;21145;-58
2022/07/15 10:09:36;;;;;;;0.80;0.80;;;;;;;23.41;100.00;99132.81;1709847;81;20992;-57
2022/07/15 10:12:20;;;;;;;1.25;0.70;;;;;;;23.34;100.00;99137.28;1710311;81;21038;-55
2022/07/15 10:15:02;;;;;;;1.25;0.80;;;;;;;23.27;100.00;99141.73;1712411;81;21473;-58
2022/07/15 10:17:49;;;;;;;1.47;0.70;;;;;;;23.17;100.00;99146.00;1706232;81;21058;-58
2022/07/15 10:20:47;;;;;;;2.15;0.80;;;;;;;23.08;100.00;99143.41;1710872;81;21241;-57
2022/07/15 10:23:25;;;;;;;1.27;0.70;;;;;;;23.01;100.00;99155.57;1713886;81;21060;-57
2022/07/15 10:26:19;;;;;;;1.57;1.00;;;;;;;22.92;100.00;99158.80;1698493;81;21073;-56
2022/07/15 10:28:54;;;;;;;0.95;0.80;;;;;;;22.87;100.00;99161.20;1679465;83;21107;-57
2022/07/15 10:31:26;;;;;;;1.65;0.80;;;;;;;22.85;100.00;99163.75;1680816;83;21113;-55
2022/07/15 10:34:13;;;;;;;2.33;0.80;;;;;;;22.87;100.00;99172.69;1699768;81;21607;-57
2022/07/15 10:36:51;;;;;;;0.88;0.88;;;;;;;22.86;100.00;99173.20;1712162;81;21470;-56
2022/07/15 10:39:21;;;;;;;1.10;1.00;;;;;;;22.83;100.00;99187.23;1703902;81;21051;-57
2022/07/15 10:41:57;;;;;;;1.57;1.00;;;;;;;22.76;100.00;99190.81;1703307;81;21161;-57
2022/07/15 10:44:35;;;;;;;1.40;0.98;;;;;;;22.70;100.00;99193.69;1710309;81;21047;-57
2022/07/15 10:47:18;;;;;;;0.98;0.85;;;;;;;22.64;100.00;99211.63;1709206;81;21141;-57
2022/07/15 10:49:48;;;;;;;1.12;0.90;;;;;;;22.59;100.00;99205.80;1705770;81;21077;-58
2022/07/15 10:52:19;;;;;;;1.17;1.07;;;;;;;22.53;100.00;99202.85;1706640;81;21070;-56
2022/07/15 10:55:00;;;;;;;1.07;0.90;;;;;;;22.48;100.00;99206.06;1707432;81;21110;-56
2022/07/15 10:57:52;;;;;;;3.05;1.25;;;;;;;22.45;100.00;99214.63;1685021;81;21057;-55
2022/07/15 11:00:33;;;;;;;1.35;1.10;;;;;;;22.43;100.00;99220.78;1713516;81;21140;-56
2022/07/15 11:03:14;;;;;;;1.15;0.90;;;;;;;22.40;100.00;99225.21;1703654;81;20968;-56
2022/07/15 11:06:01;;;;;;;2.40;1.15;;;;;;;22.38;100.00;99216.78;1708959;81;21497;-57
2022/07/15 11:08:40;;;;;;;1.40;1.30;;;;;;;22.36;100.00;99229.83;1703347;81;20987;-56
2022/07/15 11:11:19;;;;;;;2.83;1.15;;;;;;;22.35;100.00;99232.21;1703967;81;21050;-56
2022/07/15 11:13:47;;;;;;;1.72;1.20;;;;;;;22.30;100.00;99234.55;1706899;81;22242;-55
2022/07/15 11:16:19;;;;;;;1.95;1.30;;;;;;;22.22;100.00;99230.73;1705012;81;20928;-55
2022/07/15 11:18:53;;;;;;;1.57;1.22;;;;;;;22.17;100.00;99221.29;1708170;81;21351;-55
2022/07/15 11:21:20;;;;;;;1.67;1.57;;;;;;;22.12;100.00;99200.34;1710948;81;20975;-55
2022/07/15 11:23:49;;;;;;;1.95;1.80;;;;;;;22.02;100.00;99200.47;1709251;81;21402;-56
2022/07/15 11:26:16;;;;;;;3.85;1.30;;;;;;;21.92;100.00;99194.69;1706529;81;21085;-56
2022/07/15 11:28:54;;;;;;;1.65;1.55;;;;;;;21.78;100.00;99208.42;1704596;82;21376;-57
2022/07/15 11:31:21;;;;;;;1.20;1.10;;;;;;;21.66;100.00;99226.14;1709891;82;20939;-57
2022/07/15 11:33:47;;;;;;;3.02;1.50;;;;;;;21.57;100.00;99238.89;1709804;82;20955;-57
2022/07/15 11:36:20;;;;;;;2.45;1.70;;;;;;;21.51;100.00;99265.03;1706956;82;21007;-57
2022/07/15 11:38:46;;;;;;;2.58;1.60;;;;;;;21.46;100.00;99268.72;1709425;82;21320;-58
2022/07/15 11:46:46;;;;;;;1.62;1.32;;;;;;;21.38;100.00;99272.73;1711712;82;20115;-57
2022/07/15 11:49:35;;;;;;;1.50;1.20;;;;;;;21.35;100.00;99273.58;1712430;82;20975;-57
2022/07/15 11:52:04;;;;;;;2.12;1.47;;;;;;;21.33;100.00;99276.97;1711768;82;21946;-57
2022/07/15 11:54:31;;;;;;;3.47;1.15;;;;;;;21.27;100.00;99277.05;1708499;82;21461;-57
2022/07/15 11:57:00;;;;;;;2.33;1.30;;;;;;;21.23;100.00;99274.78;1706327;82;21430;-56
2022/07/15 11:59:27;;;;;;;1.65;1.55;;;;;;;21.20;100.00;99286.03;1707029;82;21489;-56
2022/07/15 12:02:08;;;;;;;1.80;1.30;;;;;;;21.17;100.00;99280.38;1707840;82;21047;-55
2022/07/15 12:04:36;;;;;;;1.30;1.20;;;;;;;21.13;100.00;99278.41;1708978;82;21081;-57
2022/07/15 12:07:03;;;;;;;2.08;1.40;;;;;;;21.07;100.00;99285.86;1710161;81;21543;-57
2022/07/15 12:09:46;;;;;;;3.47;1.30;;;;;;;21.04;100.00;99279.81;1711619;81;21046;-56
2022/07/15 12:12:14;;;;;;;1.98;1.30;;;;;;;21.02;100.00;99288.67;1708824;82;21018;-57
2022/07/15 12:14:47;;;;;;;1.62;1.52;;;;;;;20.96;100.00;99283.31;1706799;82;21496;-55
2022/07/15 12:17:15;;;;;;;2.37;1.50;;;;;;;20.94;100.00;99279.86;1691555;82;22171;-56
2022/07/15 12:19:50;;;;;;;2.50;1.30;;;;;;;20.91;100.00;99284.28;1707106;82;21093;-57
2022/07/15 12:22:16;;;;;;;1.92;1.80;;;;;;;20.89;100.00;99282.70;1685757;82;21122;-56
2022/07/15 12:24:45;;;;;;;2.87;1.60;;;;;;;20.85;100.00;99281.27;1707451;82;21090;-55
2022/07/15 12:27:13;;;;;;;1.47;1.37;;;;;;;20.78;100.00;99285.11;1709219;81;20891;-55
2022/07/15 12:29:40;;;;;;;4.08;1.40;;;;;;;20.71;100.00;99286.22;1703996;81;21183;-56
2022/07/15 12:32:11;;;;;;;3.08;1.65;;;;;;;20.67;100.00;99293.52;1711152;81;21361;-56
2022/07/15 12:34:59;;;;;;;1.70;1.60;;;;;;;20.62;100.00;99290.35;1712995;81;21085;-56
2022/07/15 12:37:35;;;;;;;2.08;1.98;;;;;;;20.54;100.00;99286.13;1644711;84;21114;-56
2022/07/15 12:40:09;;;;;;;3.47;2.10;;;;;;;20.50;100.00;99284.72;1713843;81;21329;-56
2022/07/15 12:42:47;;;;;;;1.92;1.77;;;;;;;20.50;100.00;99284.19;1705927;81;21137;-56
2022/07/15 12:45:26;;;;;;;1.95;1.60;;;;;;;20.53;100.00;99291.23;1707575;81;21430;-56
2022/07/15 12:48:13;;;;;;;1.90;1.57;;;;;;;20.58;100.00;99286.20;1704571;81;21038;-57
2022/07/15 12:50:55;;;;;;;2.08;1.87;;;;;;;20.62;100.00;99292.59;1707051;81;21102;-57
2022/07/15 12:53:26;;;;;;;1.57;1.45;;;;;;;20.67;100.00;99298.45;1707430;81;21054;-56
2022/07/15 12:55:56;;;;;;;2.45;1.62;;;;;;;20.74;100.00;99291.91;1709807;81;21185;-57
2022/07/15 12:58:28;;;;;;;2.00;1.87;;;;;;;20.80;100.00;99291.30;1709040;81;21100;-57
2022/07/15 13:01:09;;;;;;;2.00;1.42;;;;;;;20.85;100.00;99286.73;1707667;81;21038;-57
2022/07/15 13:03:36;;;;;;;1.72;1.57;;;;;;;20.90;100.00;99287.16;1703130;81;21111;-56
2022/07/15 13:06:03;;;;;;;1.30;1.20;;;;;;;20.95;100.00;99290.30;1706693;81;21478;-57
2022/07/15 13:08:33;;;;;;;1.55;1.45;;;;;;;21.02;100.00;99293.64;1710258;81;21488;-57
2022/07/15 13:11:02;;;;;;;1.10;1.10;;;;;;;21.07;100.00;99279.52;1705772;81;21126;-55
2022/07/15 13:13:33;;;;;;;1.50;1.10;;;;;;;21.10;100.00;99288.27;1710985;81;21030;-56
2022/07/15 13:16:00;;;;;;;2.27;1.02;;;;;;;21.17;100.00;99274.00;1708995;82;21062;-56
2022/07/15 13:18:29;;;;;;;1.20;1.10;;;;;;;21.22;100.00;99275.80;1705868;81;21069;-57
2022/07/15 13:20:56;;;;;;;1.07;0.80;;;;;;;21.29;100.00;99264.58;1704353;81;21564;-57
2022/07/15 13:23:23;;;;;;;1.15;0.85;;;;;;;21.32;100.00;99262.41;1711309;81;20924;-56
2022/07/15 13:25:50;;;;;;;1.37;1.05;;;;;;;21.36;100.00;99258.84;1711076;81;21710;-57
2022/07/15 13:28:17;;;;;;;2.12;1.00;;;;;;;21.40;100.00;99268.48;1706332;81;21089;-55
2022/07/15 13:30:44;;;;;;;1.35;1.00;;;;;;;21.40;100.00;99267.98;1713392;80;21090;-56
2022/07/15 13:33:12;;;;;;;1.22;1.12;;;;;;;21.41;100.00;99270.21;1722523;80;21231;-56
2022/07/15 13:35:41;;;;;;;1.00;0.90;;;;;;;21.42;100.00;99270.06;1726014;80;21388;-57
2022/07/15 13:38:07;;;;;;;1.37;0.70;;;;;;;21.47;100.00;99273.19;1725401;80;21346;-56
2022/07/15 13:40:34;;;;;;;1.05;0.72;;;;;;;21.59;100.00;99272.97;1717406;80;21128;-56
2022/07/15 13:43:00;;;;;;;1.50;0.90;;;;;;;21.66;100.00;99270.82;1719757;80;21105;-56
2022/07/15 13:45:26;;;;;;;0.82;0.70;;;;;;;21.73;100.00;99271.91;1718156;80;21580;-57
2022/07/15 13:47:53;;;;;;;1.10;0.70;;;;;;;21.75;100.00;99278.11;1722762;80;21197;-55
2022/07/15 13:53:04;;;;;;;2.87;0.80;;;;;;;21.71;100.00;99270.34;1722192;80;21406;-57
2022/07/15 13:55:31;;;;;;;3.05;0.78;;;;;;;21.64;100.00;99266.00;1721252;80;21030;-57
2022/07/15 13:57:58;;;;;;;0.80;0.70;;;;;;;21.62;100.00;99272.64;1718212;80;21090;-56
2022/07/15 14:00:24;;;;;;;0.70;0.70;;;;;;;21.58;100.00;99279.46;1721516;80;21093;-55
2022/07/15 14:02:52;;;;;;;0.95;0.65;;;;;;;21.56;100.00;99274.13;1722054;80;21444;-57
2022/07/15 14:05:19;;;;;;;0.98;0.70;;;;;;;21.60;100.00;99281.55;1724586;80;21097;-56
2022/07/15 14:07:46;;;;;;;0.60;0.60;;;;;;;21.67;100.00;99273.92;1721336;80;21172;-56
2022/07/15 14:10:12;;;;;;;1.98;0.60;;;;;;;21.77;100.00;99277.45;1718799;80;21044;-56
2022/07/15 14:12:39;;;;;;;0.70;0.53;;;;;;;21.86;100.00;99273.73;1725818;80;20998;-55
2022/07/15 14:15:07;;;;;;;0.60;0.60;;;;;;;21.88;100.00;99277.19;1721322;80;21066;-56
2022/07/15 14:17:34;;;;;;;0.78;0.78;;;;;;;21.89;100.00;99272.06;1720000;80;20970;-56
2022/07/15 14:20:02;;;;;;;0.98;0.60;;;;;;;21.87;100.00;99285.56;1722365;80;21413;-56
2022/07/15 14:22:30;;;;;;;2.37;0.60;;;;;;;21.82;100.00;99283.31;1722955;80;22205;-56
2022/07/15 14:24:57;;;;;;;3.02;0.50;;;;;;;21.79;100.00;99285.48;1720704;80;21385;-56
2022/07/15 14:27:24;;;;;;;0.50;0.50;;;;;;;21.75;100.00;99287.70;1724846;80;20964;-56
2022/07/15 14:29:50;;;;;;;0.50;0.50;;;;;;;21.70;100.00;99294.13;1719769;80;20962;-56
2022/07/15 14:32:16;;;;;;;1.00;0.50;;;;;;;21.65;100.00;99296.99;1710049;81;21495;-56
2022/07/15 14:34:44;;;;;;;0.75;0.40;;;;;;;21.61;100.00;99299.67;1712002;81;21199;-57
2022/07/15 14:37:11;;;;;;;0.60;0.60;;;;;;;21.55;100.00;99298.93;1711786;81;20900;-55
2022/07/15 14:39:38;;;;;;;1.55;0.42;;;;;;;21.52;100.00;99298.75;1713855;81;21685;-56
2022/07/15 14:42:04;;;;;;;0.50;0.50;;;;;;;21.53;100.00;99297.20;1708241;81;21433;-56
2022/07/15 14:44:31;;;;;;;0.50;0.50;;;;;;;21.52;100.00;99300.13;1711138;81;20932;-58
2022/07/15 14:46:57;;;;;;;1.75;0.40;;;;;;;21.52;100.00;99300.13;1709572;81;22090;-56
2022/07/15 14:49:24;;;;;;;0.60;0.45;;;;;;;21.54;100.00;99307.66;1708731;81;20904;-56
2022/07/15 14:51:50;;;;;;;2.25;0.50;;;;;;;21.56;100.00;99304.26;1710079;81;20899;-56
2022/07/15 14:54:17;;;;;;;0.68;0.50;;;;;;;21.61;100.00;99304.64;1708549;81;21324;-57
2022/07/15 14:56:43;;;;;;;4.33;1.77;;;;;;;21.68;100.00;99305.77;1709595;81;21493;-56
2022/07/15 14:59:10;;;;;;;1.35;0.62;;;;;;;21.75;100.00;99309.61;1710919;81;21183;-56
2022/07/15 15:01:36;;;;;;;0.80;0.50;;;;;;;21.81;100.00;99309.48;1707338;81;21569;-56
2022/07/15 15:04:03;;;;;;;1.50;0.50;;;;;;;21.87;100.00;99311.08;1708404;81;21652;-56
2022/07/15 15:06:30;;;;;;;0.50;0.40;;;;;;;21.95;100.00;99316.32;1703820;81;21488;-57
2022/07/15 15:08:58;;;;;;;0.50;0.50;;;;;;;21.99;100.00;99321.86;1657752;84;21535;-56
2022/07/15 15:11:26;;;;;;;0.62;0.40;;;;;;;22.01;100.00;99314.34;1655412;84;21087;-58
2022/07/15 15:13:52;;;;;;;2.95;0.40;;;;;;;22.00;100.00;99313.98;1659294;84;21733;-57
2022/07/15 15:16:19;;;;;;;1.50;0.50;;;;;;;22.00;100.00;99321.70;1657796;84;21485;-57
2022/07/15 15:18:46;;;;;;;0.50;0.40;;;;;;;22.01;100.00;99326.67;1657029;84;21376;-56
2022/07/15 15:21:12;;;;;;;0.50;0.40;;;;;;;21.99;100.00;99343.27;1657319;84;21083;-55
2022/07/15 15:23:39;;;;;;;0.55;0.55;;;;;;;21.99;100.00;99343.77;1661479;84;21117;-56
2022/07/15 15:26:21;;;;;;;2.02;0.42;;;;;;;21.98;100.00;99345.66;1664297;84;21077;-56
2022/07/15 15:28:56;;;;;;;0.45;0.45;;;;;;;21.97;100.00;99346.66;1659955;84;21098;-56
2022/07/15 15:31:23;;;;;;;0.78;0.40;;;;;;;21.96;100.00;99351.76;1654583;84;21186;-56
2022/07/15 15:33:51;;;;;;;1.42;0.57;;;;;;;21.94;100.00;99346.11;1663594;84;21101;-57
2022/07/15 15:36:18;;;;;;;2.45;0.50;;;;;;;21.92;100.00;99346.25;1661936;84;21097;-56
2022/07/15 15:38:44;;;;;;;0.50;0.50;;;;;;;21.92;100.00;99344.88;1661791;84;22385;-58
2022/07/15 15:41:11;;;;;;;0.50;0.40;;;;;;;21.95;100.00;99357.42;1660657;84;21078;-57
2022/07/15 15:43:38;;;;;;;1.45;0.40;;;;;;;21.95;100.00;99362.90;1659813;84;21090;-56
2022/07/15 15:46:05;;;;;;;1.15;0.55;;;;;;;21.94;100.00;99360.66;1659689;84;21082;-54
2022/07/15 15:48:31;;;;;;;1.57;0.40;;;;;;;21.94;100.00;99362.55;1672211;83;21173;-54
2022/07/15 15:50:58;;;;;;;0.50;0.50;;;;;;;21.94;100.00;99365.28;1662029;83;21564;-56
2022/07/15 15:53:25;;;;;;;0.40;0.40;;;;;;;21.94;100.00;99369.39;1665490;85;21150;-57
2022/07/15 15:55:52;;;;;;;0.50;0.40;;;;;;;21.92;100.00;99367.31;1660434;83;21133;-56
2022/07/15 15:58:19;;;;;;;0.42;0.40;;;;;;;21.91;100.00;99377.41;1658146;84;21303;-55
2022/07/15 16:00:46;;;;;;;1.05;0.40;;;;;;;21.84;100.00;99378.55;1664436;83;22424;-57
2022/07/15 16:03:12;;;;;;;2.75;0.50;;;;;;;21.79;100.00;99382.73;1655667;83;21113;-56
2022/07/15 16:05:39;;;;;;;4.35;0.55;;;;;;;21.76;100.00;99378.45;1656602;83;21068;-57
2022/07/15 16:08:05;;;;;;;0.50;0.47;;;;;;;21.77;100.00;99389.77;1661325;83;21149;-56
2022/07/15 16:10:33;;;;;;;0.57;0.40;;;;;;;21.79;100.00;99382.23;1660193;83;22339;-56
2022/07/15 16:12:59;;;;;;;0.42;0.40;;;;;;;21.81;100.00;99387.56;1664768;83;22380;-56
2022/07/15 16:15:27;;;;;;;0.60;0.60;;;;;;;21.81;100.00;99387.56;1661540;83;21094;-57